Finnhawk — OJNL — position and weather

sailwx.info

Track history (hours):
 
Tides and Currents Weather Stations Pressure Air Temp Water Temp Dewpoint Dewpoint Depression Visibility Wind Speed Wind Dir Waves Ship Positions

Finnhawk

Last reported at 2014-Jul-26 00:33 UTC. Time now 2014-Jul-26 01:05 UTC.
Position N 59°59' E 026°07'.

Length 163 m; draft 6.3 m.

Type: Ship. MMSI: 230007000.

Date/timePositionNaut miles runAvg speedWind from/ knotsBaromVisibWave heightAir tempDewpointWater temp
2014-Jul-26 00:33N 59°59' E 026°07'1514.6
2014-Jul-25 23:33N 60°01' E 026°36'1414.4
2014-Jul-25 22:33N 59°59' E 027°04'1514.6
2014-Jul-25 21:33N 60°07' E 027°30'1413.8
2014-Jul-25 20:33N 60°11' E 027°56'6713.3
2014-Jul-25 15:32N 59°54' E 030°05'4 1.0
2014-Jul-25 11:10N 59°54' E 030°13'0 0.0
2014-Jul-25 05:10N 59°53' E 030°13'2 3.3
2014-Jul-25 04:30N 59°54' E 030°09'7515.0
2014-Jul-24 23:31N 60°09' E 027°42'1818.6
2014-Jul-24 22:33N 60°00' E 027°10'1818.0
2014-Jul-24 21:33N 59°59' E 026°35'1514.9
2014-Jul-24 20:34N 60°13' E 026°23'1817.7
2014-Jul-24 19:34N 60°24' E 026°51'6 5.7
2014-Jul-24 18:33N 60°29' E 026°57'0 0.0
2014-Jul-24 17:33N 60°29' E 026°57'0 0.0
2014-Jul-24 16:33N 60°29' E 026°57'0 0.0
2014-Jul-24 15:33N 60°29' E 026°57'0 0.0
2014-Jul-24 14:33N 60°29' E 026°57'0 0.0
2014-Jul-24 13:33N 60°29' E 026°57'0 0.0
2014-Jul-24 12:33N 60°29' E 026°57'0 0.0
2014-Jul-24 11:33N 60°29' E 026°57'0 0.0
2014-Jul-24 10:33N 60°29' E 026°57'0 0.0
2014-Jul-24 09:33N 60°29' E 026°57'0 0.0
2014-Jul-24 08:33N 60°29' E 026°57'0 0.0
2014-Jul-24 07:33N 60°29' E 026°57'0 0.0
2014-Jul-24 06:33N 60°29' E 026°57'0 0.0
2014-Jul-24 05:33N 60°29' E 026°57'0 0.0
2014-Jul-24 04:33N 60°29' E 026°57'0 0.0
2014-Jul-24 03:33N 60°29' E 026°57'0 0.0
2014-Jul-24 02:33N 60°29' E 026°57'1010.4
2014-Jul-24 01:33N 60°22' E 026°42'1615.9
2014-Jul-24 00:33N 60°10' E 026°21'1514.5
2014-Jul-23 23:33N 60°01' E 025°58'26 3.5
2014-Jul-23 16:13N 60°13' E 025°12'6 9.2
2014-Jul-23 15:33N 60°07' E 025°12'2218.4
2014-Jul-23 14:21N 59°49' E 024°44'1618.7
2014-Jul-23 13:28N 59°42' E 024°15'1819.3
2014-Jul-23 12:33N 59°37' E 023°41'4119.7
2014-Jul-23 10:29N 59°21' E 022°28'4219.2
2014-Jul-23 08:19N 58°53' E 021°28'1419.1
2014-Jul-23 07:33N 58°41' E 021°11'1919.1
2014-Jul-23 06:33N 58°26' E 020°49'1919.3
2014-Jul-23 05:33N 58°11' E 020°27'1919.2
2014-Jul-23 04:33N 57°56' E 020°05'1919.4
2014-Jul-23 03:33N 57°40' E 019°43'1919.2
2014-Jul-23 02:33N 57°25' E 019°21'1919.2
2014-Jul-23 01:33N 57°09' E 018°60'1919.2
2014-Jul-23 00:33N 56°54' E 018°38'1918.7
2014-Jul-22 23:33N 56°41' E 018°14'1918.8
2014-Jul-22 22:33N 56°29' E 017°47'1918.9
2014-Jul-22 21:33N 56°17' E 017°21'1918.8
2014-Jul-22 20:33N 56°06' E 016°54'1918.9
2014-Jul-22 19:33N 55°56' E 016°25'1919.1
2014-Jul-22 18:34N 55°47' E 015°55'1919.0
2014-Jul-22 17:33N 55°38' E 015°26'1918.8
2014-Jul-22 16:34N 55°29' E 014°57'1918.7
2014-Jul-22 15:33N 55°18' E 014°30'1717.3
2014-Jul-22 14:33N 55°10' E 014°03'1818.3
2014-Jul-22 13:33N 55°11' E 013°31'1918.7
2014-Jul-22 12:33N 55°14' E 012°58'1414.3
2014-Jul-22 11:33N 55°23' E 012°39'1413.7
2014-Jul-22 10:33N 55°37' E 012°42'1514.7
2014-Jul-22 09:33N 55°52' E 012°41'1616.2
2014-Jul-22 08:33N 56°07' E 012°31'1919.5
2014-Jul-22 07:33N 56°19' E 012°03'2019.6
2014-Jul-22 06:33N 56°38' E 011°54'1919.3
2014-Jul-22 05:33N 56°56' E 011°44'1919.4
2014-Jul-22 04:33N 57°14' E 011°31'1919.2
2014-Jul-22 03:33N 57°32' E 011°16'1919.4
2014-Jul-22 02:33N 57°45' E 010°49'1818.1
2014-Jul-22 01:33N 57°43' E 010°15'1919.2
2014-Jul-22 00:33N 57°36' E 009°42'1919.2
2014-Jul-21 23:33N 57°26' E 009°12'31019.1
2014-Jul-21 07:18N 54°13' E 001°58'3419.0
2014-Jul-21 05:33N 53°55' E 001°10'1919.4
2014-Jul-21 04:33N 53°45' E 000°42'2019.6
2014-Jul-21 03:34N 53°34' E 000°15'1616.2
2014-Jul-21 02:33N 53°39' W 000°10'7 6.5
2014-Jul-21 01:33N 53°44' W 000°16'0 0.1
2014-Jul-21 00:30N 53°44' W 000°16'0 0.0
2014-Jul-20 23:24N 53°44' W 000°16'0 0.0
2014-Jul-20 22:33N 53°44' W 000°16'0 0.0
2014-Jul-20 21:30N 53°44' W 000°16'0 0.0
2014-Jul-20 20:33N 53°44' W 000°16'0 0.0
2014-Jul-20 19:33N 53°44' W 000°16'0 0.0
2014-Jul-20 18:33N 53°44' W 000°16'0 0.0
2014-Jul-20 17:30N 53°44' W 000°16'0 0.0
2014-Jul-20 16:30N 53°44' W 000°16'0 0.0
2014-Jul-20 15:30N 53°44' W 000°16'0 0.0
2014-Jul-20 14:33N 53°44' W 000°16'0 0.0
2014-Jul-20 13:33N 53°44' W 000°16'0 0.0
2014-Jul-20 12:30N 53°44' W 000°16'0 0.0
2014-Jul-20 11:21N 53°44' W 000°16'0 0.3
2014-Jul-20 10:33N 53°45' W 000°16'4 4.3
2014-Jul-20 09:33N 53°41' W 000°13'1313.5
2014-Jul-20 08:34N 53°34' E 000°07'1312.7
2014-Jul-20 07:34N 53°40' E 000°25'14417.6
2014-Jul-19 23:25N 54°55' E 003°55'26018.7
2014-Jul-19 09:29N 57°40' E 009°57'1819.0
2014-Jul-19 08:33N 57°46' E 010°29'1817.8
2014-Jul-19 07:33N 57°41' E 011°01'1919.5
2014-Jul-19 06:33N 57°27' E 011°27'2020.0
2014-Jul-19 05:33N 57°08' E 011°40'1919.6
2014-Jul-19 04:34N 56°50' E 011°52'1919.5
2014-Jul-19 03:33N 56°32' E 012°03'1919.1
2014-Jul-19 02:34N 56°15' E 012°21'1919.0
2014-Jul-19 01:33N 56°00' E 012°41'1716.8
2014-Jul-19 00:34N 55°43' E 012°41'1514.6
2014-Jul-18 23:34N 55°29' E 012°42'1413.8
2014-Jul-18 22:33N 55°16' E 012°52'1919.1
2014-Jul-18 21:33N 55°14' E 013°25'1919.3
2014-Jul-18 20:33N 55°13' E 013°59'1817.5
2014-Jul-18 19:33N 55°20' E 014°27'1918.9
2014-Jul-18 18:33N 55°33' E 014°51'1919.2
2014-Jul-18 17:33N 55°43' E 015°21'2019.2
2014-Jul-18 16:31N 55°53' E 015°52'1819.2
2014-Jul-18 15:33N 56°02' E 016°20'5518.4
2014-Jul-18 12:33N 56°48' E 017°14'1919.3
2014-Jul-18 11:33N 57°06' E 017°27'2019.2
2014-Jul-18 10:32N 57°24' E 017°41'1919.1
2014-Jul-18 09:33N 57°41' E 017°55'  
Track history (hours):
 
Tides and Currents Weather Stations Pressure Air Temp Water Temp Dewpoint Dewpoint Depression Visibility Wind Speed Wind Dir Waves Ship Positions

Finnhawk

Last reported at 2014-Jul-26 00:33 UTC. Time now 2014-Jul-26 01:05 UTC.
Position N 59°59' E 026°07'.

Length 163 m; draft 6.3 m.

Type: Ship. MMSI: 230007000.

Date/timePositionNaut miles runAvg speedWind from/ knotsBaromVisibWave heightAir tempDewpointWater temp
2014-Jul-26 00:33N 59°59' E 026°07'1514.6
2014-Jul-25 23:33N 60°01' E 026°36'1414.4
2014-Jul-25 22:33N 59°59' E 027°04'1514.6
2014-Jul-25 21:33N 60°07' E 027°30'1413.8
2014-Jul-25 20:33N 60°11' E 027°56'6713.3
2014-Jul-25 15:32N 59°54' E 030°05'4 1.0
2014-Jul-25 11:10N 59°54' E 030°13'0 0.0
2014-Jul-25 05:10N 59°53' E 030°13'2 3.3
2014-Jul-25 04:30N 59°54' E 030°09'7515.0
2014-Jul-24 23:31N 60°09' E 027°42'1818.6
2014-Jul-24 22:33N 60°00' E 027°10'1818.0
2014-Jul-24 21:33N 59°59' E 026°35'1514.9
2014-Jul-24 20:34N 60°13' E 026°23'1817.7
2014-Jul-24 19:34N 60°24' E 026°51'6 5.7
2014-Jul-24 18:33N 60°29' E 026°57'0 0.0
2014-Jul-24 17:33N 60°29' E 026°57'0 0.0
2014-Jul-24 16:33N 60°29' E 026°57'0 0.0
2014-Jul-24 15:33N 60°29' E 026°57'0 0.0
2014-Jul-24 14:33N 60°29' E 026°57'0 0.0
2014-Jul-24 13:33N 60°29' E 026°57'0 0.0
2014-Jul-24 12:33N 60°29' E 026°57'0 0.0
2014-Jul-24 11:33N 60°29' E 026°57'0 0.0
2014-Jul-24 10:33N 60°29' E 026°57'0 0.0
2014-Jul-24 09:33N 60°29' E 026°57'0 0.0
2014-Jul-24 08:33N 60°29' E 026°57'0 0.0
2014-Jul-24 07:33N 60°29' E 026°57'0 0.0
2014-Jul-24 06:33N 60°29' E 026°57'0 0.0
2014-Jul-24 05:33N 60°29' E 026°57'0 0.0
2014-Jul-24 04:33N 60°29' E 026°57'0 0.0
2014-Jul-24 03:33N 60°29' E 026°57'0 0.0
2014-Jul-24 02:33N 60°29' E 026°57'1010.4
2014-Jul-24 01:33N 60°22' E 026°42'1615.9
2014-Jul-24 00:33N 60°10' E 026°21'1514.5
2014-Jul-23 23:33N 60°01' E 025°58'26 3.5
2014-Jul-23 16:13N 60°13' E 025°12'6 9.2
2014-Jul-23 15:33N 60°07' E 025°12'2218.4
2014-Jul-23 14:21N 59°49' E 024°44'1618.7
2014-Jul-23 13:28N 59°42' E 024°15'1819.3
2014-Jul-23 12:33N 59°37' E 023°41'4119.7
2014-Jul-23 10:29N 59°21' E 022°28'4219.2
2014-Jul-23 08:19N 58°53' E 021°28'1419.1
2014-Jul-23 07:33N 58°41' E 021°11'1919.1
2014-Jul-23 06:33N 58°26' E 020°49'1919.3
2014-Jul-23 05:33N 58°11' E 020°27'1919.2
2014-Jul-23 04:33N 57°56' E 020°05'1919.4
2014-Jul-23 03:33N 57°40' E 019°43'1919.2
2014-Jul-23 02:33N 57°25' E 019°21'1919.2
2014-Jul-23 01:33N 57°09' E 018°60'1919.2
2014-Jul-23 00:33N 56°54' E 018°38'1918.7
2014-Jul-22 23:33N 56°41' E 018°14'1918.8
2014-Jul-22 22:33N 56°29' E 017°47'1918.9
2014-Jul-22 21:33N 56°17' E 017°21'1918.8
2014-Jul-22 20:33N 56°06' E 016°54'1918.9
2014-Jul-22 19:33N 55°56' E 016°25'1919.1
2014-Jul-22 18:34N 55°47' E 015°55'1919.0
2014-Jul-22 17:33N 55°38' E 015°26'1918.8
2014-Jul-22 16:34N 55°29' E 014°57'1918.7
2014-Jul-22 15:33N 55°18' E 014°30'1717.3
2014-Jul-22 14:33N 55°10' E 014°03'1818.3
2014-Jul-22 13:33N 55°11' E 013°31'1918.7
2014-Jul-22 12:33N 55°14' E 012°58'1414.3
2014-Jul-22 11:33N 55°23' E 012°39'1413.7
2014-Jul-22 10:33N 55°37' E 012°42'1514.7
2014-Jul-22 09:33N 55°52' E 012°41'1616.2
2014-Jul-22 08:33N 56°07' E 012°31'1919.5
2014-Jul-22 07:33N 56°19' E 012°03'2019.6
2014-Jul-22 06:33N 56°38' E 011°54'1919.3
2014-Jul-22 05:33N 56°56' E 011°44'1919.4
2014-Jul-22 04:33N 57°14' E 011°31'1919.2
2014-Jul-22 03:33N 57°32' E 011°16'1919.4
2014-Jul-22 02:33N 57°45' E 010°49'1818.1
2014-Jul-22 01:33N 57°43' E 010°15'1919.2
2014-Jul-22 00:33N 57°36' E 009°42'1919.2
2014-Jul-21 23:33N 57°26' E 009°12'31019.1
2014-Jul-21 07:18N 54°13' E 001°58'3419.0
2014-Jul-21 05:33N 53°55' E 001°10'1919.4
2014-Jul-21 04:33N 53°45' E 000°42'2019.6
2014-Jul-21 03:34N 53°34' E 000°15'1616.2
2014-Jul-21 02:33N 53°39' W 000°10'7 6.5
2014-Jul-21 01:33N 53°44' W 000°16'0 0.1
2014-Jul-21 00:30N 53°44' W 000°16'0 0.0
2014-Jul-20 23:24N 53°44' W 000°16'0 0.0
2014-Jul-20 22:33N 53°44' W 000°16'0 0.0
2014-Jul-20 21:30N 53°44' W 000°16'0 0.0
2014-Jul-20 20:33N 53°44' W 000°16'0 0.0
2014-Jul-20 19:33N 53°44' W 000°16'0 0.0
2014-Jul-20 18:33N 53°44' W 000°16'0 0.0
2014-Jul-20 17:30N 53°44' W 000°16'0 0.0
2014-Jul-20 16:30N 53°44' W 000°16'0 0.0
2014-Jul-20 15:30N 53°44' W 000°16'0 0.0
2014-Jul-20 14:33N 53°44' W 000°16'0 0.0
2014-Jul-20 13:33N 53°44' W 000°16'0 0.0
2014-Jul-20 12:30N 53°44' W 000°16'0 0.0
2014-Jul-20 11:21N 53°44' W 000°16'0 0.3
2014-Jul-20 10:33N 53°45' W 000°16'4 4.3
2014-Jul-20 09:33N 53°41' W 000°13'1313.5
2014-Jul-20 08:34N 53°34' E 000°07'1312.7
2014-Jul-20 07:34N 53°40' E 000°25'14417.6
2014-Jul-19 23:25N 54°55' E 003°55'26018.7
2014-Jul-19 09:29N 57°40' E 009°57'1819.0
2014-Jul-19 08:33N 57°46' E 010°29'1817.8
2014-Jul-19 07:33N 57°41' E 011°01'1919.5
2014-Jul-19 06:33N 57°27' E 011°27'2020.0
2014-Jul-19 05:33N 57°08' E 011°40'1919.6
2014-Jul-19 04:34N 56°50' E 011°52'1919.5
2014-Jul-19 03:33N 56°32' E 012°03'1919.1
2014-Jul-19 02:34N 56°15' E 012°21'1919.0
2014-Jul-19 01:33N 56°00' E 012°41'1716.8
2014-Jul-19 00:34N 55°43' E 012°41'1514.6
2014-Jul-18 23:34N 55°29' E 012°42'1413.8
2014-Jul-18 22:33N 55°16' E 012°52'1919.1
2014-Jul-18 21:33N 55°14' E 013°25'1919.3
2014-Jul-18 20:33N 55°13' E 013°59'1817.5
2014-Jul-18 19:33N 55°20' E 014°27'1918.9
2014-Jul-18 18:33N 55°33' E 014°51'1919.2
2014-Jul-18 17:33N 55°43' E 015°21'2019.2
2014-Jul-18 16:31N 55°53' E 015°52'1819.2
2014-Jul-18 15:33N 56°02' E 016°20'5518.4
2014-Jul-18 12:33N 56°48' E 017°14'1919.3
2014-Jul-18 11:33N 57°06' E 017°27'2019.2
2014-Jul-18 10:32N 57°24' E 017°41'1919.1
2014-Jul-18 09:33N 57°41' E 017°55'  

Dump ship's entire track history